Canton, Ohio
Current Conditions -  °F | °C
As of 7:51 PM on Sunday 23 Nov 2014 (Local Time) from KCAK Reporting Station
Light Rain Light Rain  
Wind Chill: 57°   Ceiling: 10000
Heat Index: 57°   Visibility: 8mi
Dew Point: 45°   Wind: 18mph
Humidity: 64%   Direction: 160°SSE
Pressure: 29.62"   Gusts: 26mph
Location:  40.8°N, 81.37°W
Report Text: KCAK 240051Z 16016G23KT 8SM -RA BKN100 OVC120 14/07 A2962 RMK AO2 SLP033 RAB27 P0001 T01390072 $
Loading
Personal Weather Stations






























Interactive Weather Map New forecast layout! Learn more

10-Day Weather Forecast

Advertisements
Track Severe Weather on mobile